createdAt,value
2022-10-13T00:00:05.460Z,1013.17
2022-10-13T00:00:40.785Z,1013.16
2022-10-13T00:01:15.874Z,1013.17
2022-10-13T00:01:51.177Z,1013.16
2022-10-13T00:02:26.390Z,1013.16
2022-10-13T00:03:01.705Z,1013.16
2022-10-13T00:03:37.191Z,1013.16
2022-10-13T00:04:12.488Z,1013.20
2022-10-13T00:04:47.565Z,1013.12
2022-10-13T00:05:22.668Z,1013.13
2022-10-13T00:05:57.651Z,1013.16
2022-10-13T00:06:33.155Z,1013.15
2022-10-13T00:07:08.352Z,1013.16
2022-10-13T00:07:43.617Z,1013.11
2022-10-13T00:08:18.710Z,1013.13
2022-10-13T00:08:53.705Z,1013.15
2022-10-13T00:09:29.001Z,1013.15
2022-10-13T00:10:04.153Z,1013.15
2022-10-13T00:10:39.449Z,1013.16
2022-10-13T00:11:14.833Z,1013.13
2022-10-13T00:11:50.904Z,1013.14
2022-10-13T00:12:26.320Z,1013.13
2022-10-13T00:13:01.402Z,1013.15
2022-10-13T00:13:36.777Z,1013.17
2022-10-13T00:14:12.346Z,1013.15
2022-10-13T00:14:47.730Z,1013.19
2022-10-13T00:15:23.311Z,1013.14
2022-10-13T00:15:58.390Z,1013.15
2022-10-13T00:16:33.572Z,1013.14
2022-10-13T00:17:08.655Z,1013.10
2022-10-13T00:17:43.733Z,1013.13
2022-10-13T00:18:18.915Z,1013.13
2022-10-13T00:18:54.082Z,1013.09
2022-10-13T00:19:29.243Z,1013.10
2022-10-13T00:20:04.431Z,1013.10
2022-10-13T00:20:39.593Z,1013.08
2022-10-13T00:21:14.958Z,1013.07
2022-10-13T00:21:50.137Z,1013.08
2022-10-13T00:22:25.403Z,1013.09
2022-10-13T00:23:00.783Z,1013.08
2022-10-13T00:23:35.869Z,1013.07
2022-10-13T00:24:11.056Z,1013.08
2022-10-13T00:24:46.330Z,1013.06
2022-10-13T00:25:21.619Z,1013.05
2022-10-13T00:25:56.985Z,1013.01
2022-10-13T00:26:32.157Z,1013.04
2022-10-13T00:27:07.456Z,1013.05
2022-10-13T00:27:42.435Z,1013.06
2022-10-13T00:28:17.376Z,1013.02
2022-10-13T00:28:53.290Z,1013.05
2022-10-13T00:29:28.377Z,1013.01
2022-10-13T00:30:03.369Z,1013.03
2022-10-13T00:30:38.439Z,1013.00
2022-10-13T00:31:14.017Z,1012.98
2022-10-13T00:31:48.896Z,1013.01
2022-10-13T00:32:24.119Z,1012.97
2022-10-13T00:32:59.096Z,1012.96
2022-10-13T00:33:34.482Z,1013.00
2022-10-13T00:34:09.683Z,1013.00
2022-10-13T00:34:44.875Z,1012.96
2022-10-13T00:35:20.044Z,1012.99
2022-10-13T00:35:55.362Z,1012.95
2022-10-13T00:36:30.799Z,1012.92
2022-10-13T00:37:06.029Z,1012.93
2022-10-13T00:37:41.318Z,1012.95
2022-10-13T00:38:16.681Z,1012.93
2022-10-13T00:38:51.781Z,1012.91
2022-10-13T00:39:27.266Z,1012.95
2022-10-13T00:40:02.750Z,1012.91
2022-10-13T00:40:37.807Z,1012.93
2022-10-13T00:41:12.993Z,1012.91
2022-10-13T00:41:48.181Z,1012.90
2022-10-13T00:42:23.348Z,1012.90
2022-10-13T00:42:58.317Z,1012.91
2022-10-13T00:43:33.598Z,1012.91
2022-10-13T00:44:08.996Z,1012.94
2022-10-13T00:44:44.374Z,1012.93
2022-10-13T00:45:19.655Z,1012.92
2022-10-13T00:45:54.644Z,1012.94
2022-10-13T00:46:29.730Z,1012.94
2022-10-13T00:47:05.045Z,1012.96
2022-10-13T00:47:40.228Z,1012.93
2022-10-13T00:48:15.199Z,1012.94
2022-10-13T00:48:50.470Z,1012.93
2022-10-13T00:49:25.370Z,1012.92
2022-10-13T00:50:00.469Z,1012.93
2022-10-13T00:50:35.961Z,1012.93
2022-10-13T00:51:11.334Z,1013.02
2022-10-13T00:51:46.813Z,1012.98
2022-10-13T00:52:22.195Z,1012.94
2022-10-13T00:52:57.392Z,1012.96
2022-10-13T00:53:32.673Z,1012.94
2022-10-13T00:54:07.671Z,1012.95
2022-10-13T00:54:42.774Z,1012.94
2022-10-13T00:55:17.878Z,1012.95
2022-10-13T00:55:53.182Z,1012.93
2022-10-13T00:56:28.162Z,1012.98
2022-10-13T00:57:03.455Z,1012.96
2022-10-13T00:57:38.754Z,1012.97
2022-10-13T00:58:14.133Z,1012.96
2022-10-13T00:58:49.433Z,1012.98
2022-10-13T00:59:24.534Z,1012.97
2022-10-13T00:59:59.522Z,1012.97
2022-10-13T01:00:34.799Z,1012.96
2022-10-13T01:01:09.979Z,1012.97
2022-10-13T01:01:44.941Z,1012.95
2022-10-13T01:02:21.141Z,1012.97
2022-10-13T01:02:55.607Z,1012.98
2022-10-13T01:03:30.966Z,1012.96
2022-10-13T01:04:06.154Z,1012.95
2022-10-13T01:04:41.224Z,1012.92
2022-10-13T01:05:16.517Z,1012.92
2022-10-13T01:05:51.533Z,1012.94
2022-10-13T01:06:26.633Z,1012.92
2022-10-13T01:07:01.633Z,1012.91
2022-10-13T01:07:36.810Z,1012.93
2022-10-13T01:08:12.218Z,1012.88
2022-10-13T01:08:47.592Z,1012.94
2022-10-13T01:09:22.997Z,1012.88
2022-10-13T01:09:57.877Z,1012.88
2022-10-13T01:10:33.049Z,1012.84
2022-10-13T01:11:08.576Z,1012.86
2022-10-13T01:11:44.008Z,1012.81
2022-10-13T01:12:19.553Z,1012.82
2022-10-13T01:12:54.391Z,1012.84
2022-10-13T01:13:29.693Z,1012.80
2022-10-13T01:14:05.168Z,1012.84
2022-10-13T01:14:40.467Z,1012.79
2022-10-13T01:15:15.661Z,1012.79
2022-10-13T01:15:51.154Z,1012.75
2022-10-13T01:16:26.358Z,1012.77
2022-10-13T01:17:01.646Z,1012.73
2022-10-13T01:17:36.754Z,1012.74
2022-10-13T01:18:12.239Z,1012.74
2022-10-13T01:18:47.548Z,1012.72
2022-10-13T01:19:22.816Z,1012.75
2022-10-13T01:19:58.151Z,1012.74
2022-10-13T01:20:33.637Z,1012.74
2022-10-13T01:21:08.837Z,1012.67
2022-10-13T01:21:43.933Z,1012.66
2022-10-13T01:22:19.488Z,1012.65
2022-10-13T01:22:54.370Z,1012.65
2022-10-13T01:23:29.554Z,1012.67
2022-10-13T01:24:04.703Z,1012.61
2022-10-13T01:24:39.990Z,1012.60
2022-10-13T01:25:15.181Z,1012.55
2022-10-13T01:25:51.433Z,1012.56
2022-10-13T01:26:26.718Z,1012.57
2022-10-13T01:27:02.150Z,1012.55
2022-10-13T01:27:37.628Z,1012.55
2022-10-13T01:28:13.006Z,1012.55
2022-10-13T01:28:48.300Z,1012.51
2022-10-13T01:29:23.840Z,1012.50
2022-10-13T01:29:59.144Z,1012.50
2022-10-13T01:30:34.428Z,1012.49
2022-10-13T01:31:09.598Z,1012.48
2022-10-13T01:31:44.513Z,1012.51
2022-10-13T01:32:20.078Z,1012.49
2022-10-13T01:32:54.835Z,1012.51
2022-10-13T01:33:30.337Z,1012.52
2022-10-13T01:34:08.422Z,1012.52
2022-10-13T01:34:43.730Z,1012.50
2022-10-13T01:35:19.348Z,1012.48
2022-10-13T01:35:54.939Z,1012.48
2022-10-13T01:36:30.128Z,1012.46
2022-10-13T01:37:05.519Z,1012.44
2022-10-13T01:37:40.627Z,1012.46
2022-10-13T01:38:16.240Z,1012.43
2022-10-13T01:38:51.435Z,1012.41
2022-10-13T01:39:26.621Z,1012.43
2022-10-13T01:40:01.628Z,1012.42
2022-10-13T01:40:36.646Z,1012.40
2022-10-13T01:41:11.836Z,1012.42
2022-10-13T01:41:47.130Z,1012.42
2022-10-13T01:42:22.436Z,1012.38
2022-10-13T01:42:57.610Z,1012.40
2022-10-13T01:43:32.820Z,1012.38
2022-10-13T01:44:08.220Z,1012.42
2022-10-13T01:44:43.549Z,1012.41
2022-10-13T01:45:18.984Z,1012.40
2022-10-13T01:45:54.315Z,1012.40
2022-10-13T01:46:29.710Z,1012.38
2022-10-13T01:47:05.444Z,1012.36
2022-10-13T01:47:40.452Z,1012.33
2022-10-13T01:48:15.652Z,1012.29
2022-10-13T01:48:51.121Z,1012.28
2022-10-13T01:49:26.222Z,1012.30
2022-10-13T01:50:01.412Z,1012.28
2022-10-13T01:50:36.742Z,1012.29
2022-10-13T01:51:12.126Z,1012.28
2022-10-13T01:51:47.150Z,1012.24
2022-10-13T01:52:22.412Z,1012.25
2022-10-13T01:52:57.776Z,1012.26
2022-10-13T01:53:33.269Z,1012.23
2022-10-13T01:54:08.551Z,1012.21
2022-10-13T01:54:43.771Z,1012.23
2022-10-13T01:55:18.870Z,1012.24
2022-10-13T01:55:53.708Z,1012.22
2022-10-13T01:56:28.933Z,1012.26
2022-10-13T01:57:04.526Z,1012.27
2022-10-13T01:57:39.915Z,1012.27
2022-10-13T01:58:15.011Z,1012.26
2022-10-13T01:58:50.229Z,1012.23
2022-10-13T01:59:25.531Z,1012.27
2022-10-13T02:00:00.620Z,1012.20
2022-10-13T02:00:35.699Z,1012.25
2022-10-13T02:01:11.107Z,1012.25
2022-10-13T02:01:46.688Z,1012.20
2022-10-13T02:02:22.042Z,1012.24
2022-10-13T02:02:57.451Z,1012.24
2022-10-13T02:03:33.031Z,1012.26
2022-10-13T02:04:08.260Z,1012.25
2022-10-13T02:04:43.262Z,1012.25
2022-10-13T02:05:18.453Z,1012.26
2022-10-13T02:05:53.643Z,1012.28
2022-10-13T02:06:29.172Z,1012.25
2022-10-13T02:07:04.176Z,1012.22
2022-10-13T02:07:39.454Z,1012.21
2022-10-13T02:08:14.749Z,1012.22
2022-10-13T02:08:50.132Z,1012.19
2022-10-13T02:09:25.438Z,1012.17
2022-10-13T02:10:00.766Z,1012.16
2022-10-13T02:10:36.020Z,1012.19
2022-10-13T02:11:11.451Z,1012.19
2022-10-13T02:11:46.661Z,1012.18
2022-10-13T02:12:22.121Z,1012.16
2022-10-13T02:12:57.170Z,1012.17
2022-10-13T02:13:32.183Z,1012.14
2022-10-13T02:14:07.580Z,1012.16
2022-10-13T02:14:42.765Z,1012.18
2022-10-13T02:15:17.857Z,1012.16
2022-10-13T02:15:53.252Z,1012.16
2022-10-13T02:16:28.459Z,1012.14
2022-10-13T02:17:03.786Z,1012.15
2022-10-13T02:17:39.173Z,1012.12
2022-10-13T02:18:14.466Z,1012.16
2022-10-13T02:18:49.664Z,1012.15
2022-10-13T02:19:24.952Z,1012.18
2022-10-13T02:20:00.155Z,1012.16
2022-10-13T02:20:35.340Z,1012.18
2022-10-13T02:21:10.741Z,1012.14
2022-10-13T02:21:46.056Z,1012.15
2022-10-13T02:22:21.491Z,1012.13
2022-10-13T02:22:56.349Z,1012.14
2022-10-13T02:23:31.374Z,1012.15
2022-10-13T02:24:06.456Z,1012.17
2022-10-13T02:24:41.638Z,1012.15
2022-10-13T02:25:16.833Z,1012.14
2022-10-13T02:25:52.240Z,1012.12
2022-10-13T02:26:27.467Z,1012.13
2022-10-13T02:27:02.519Z,1012.16
2022-10-13T02:27:37.789Z,1012.16
2022-10-13T02:28:12.958Z,1012.16
2022-10-13T02:28:48.630Z,1012.14
2022-10-13T02:29:23.888Z,1012.15
2022-10-13T02:29:59.076Z,1012.14
2022-10-13T02:30:34.071Z,1012.13
2022-10-13T02:31:09.555Z,1012.11
2022-10-13T02:31:44.663Z,1012.13
2022-10-13T02:32:20.274Z,1012.08
2022-10-13T02:32:55.087Z,1012.11
2022-10-13T02:33:30.503Z,1012.12
2022-10-13T02:34:05.570Z,1012.15
2022-10-13T02:34:40.555Z,1012.12
2022-10-13T02:35:15.753Z,1012.17
2022-10-13T02:35:50.754Z,1012.14
2022-10-13T02:36:25.969Z,1012.16
2022-10-13T02:37:01.374Z,1012.14
2022-10-13T02:37:36.486Z,1012.11
2022-10-13T02:38:11.955Z,1012.11
2022-10-13T02:38:47.263Z,1012.11
2022-10-13T02:39:22.339Z,1012.11
2022-10-13T02:39:57.444Z,1012.10
2022-10-13T02:40:32.950Z,1012.12
2022-10-13T02:41:08.245Z,1012.12
2022-10-13T02:41:43.471Z,1012.12
2022-10-13T02:42:19.018Z,1012.13
2022-10-13T02:42:53.747Z,1012.14
2022-10-13T02:43:28.965Z,1012.10
2022-10-13T02:44:04.466Z,1012.15
2022-10-13T02:44:39.455Z,1012.15
2022-10-13T02:45:14.678Z,1012.15
2022-10-13T02:45:49.768Z,1012.15
2022-10-13T02:46:25.158Z,1012.12
2022-10-13T02:47:00.299Z,1012.14
2022-10-13T02:47:35.591Z,1012.12
2022-10-13T02:48:10.671Z,1012.12
2022-10-13T02:48:45.862Z,1012.12
2022-10-13T02:49:21.275Z,1012.08
2022-10-13T02:49:56.400Z,1012.11
2022-10-13T02:50:31.698Z,1012.10
2022-10-13T02:51:07.145Z,1012.07
2022-10-13T02:51:42.158Z,1012.07
2022-10-13T02:52:17.366Z,1012.04
2022-10-13T02:52:52.746Z,1012.09
2022-10-13T02:53:28.011Z,1012.12
2022-10-13T02:54:03.346Z,1012.10
2022-10-13T02:54:38.333Z,1012.10
2022-10-13T02:55:13.526Z,1012.12
2022-10-13T02:55:48.620Z,1012.13
2022-10-13T02:56:23.919Z,1012.14
2022-10-13T02:56:59.120Z,1012.09
2022-10-13T02:57:34.729Z,1012.13
2022-10-13T02:58:10.122Z,1012.10
2022-10-13T02:58:45.422Z,1012.13
2022-10-13T02:59:20.513Z,1012.12
2022-10-13T02:59:55.630Z,1012.17
2022-10-13T03:00:30.928Z,1012.18
2022-10-13T03:01:06.269Z,1012.16
2022-10-13T03:01:41.413Z,1012.20
2022-10-13T03:02:16.813Z,1012.16
2022-10-13T03:02:51.918Z,1012.17
2022-10-13T03:03:27.118Z,1012.17
2022-10-13T03:04:02.421Z,1012.14
2022-10-13T03:04:37.223Z,1012.15
2022-10-13T03:05:12.608Z,1012.19
2022-10-13T03:05:47.699Z,1012.22
2022-10-13T03:06:22.833Z,1012.20
2022-10-13T03:06:58.065Z,1012.21
2022-10-13T03:07:33.454Z,1012.24
2022-10-13T03:08:08.553Z,1012.23
2022-10-13T03:08:43.788Z,1012.23
2022-10-13T03:09:18.917Z,1012.28
2022-10-13T03:09:54.325Z,1012.24
2022-10-13T03:10:29.634Z,1012.25
2022-10-13T03:11:05.039Z,1012.21
2022-10-13T03:11:40.600Z,1012.19
2022-10-13T03:12:15.921Z,1012.18
2022-10-13T03:12:51.234Z,1012.16
2022-10-13T03:13:26.576Z,1012.15
2022-10-13T03:14:01.692Z,1012.15
2022-10-13T03:14:37.088Z,1012.12
2022-10-13T03:15:12.281Z,1012.08
2022-10-13T03:15:47.586Z,1012.09
2022-10-13T03:16:23.098Z,1012.05
2022-10-13T03:16:58.587Z,1012.05
2022-10-13T03:17:33.576Z,1012.02
2022-10-13T03:18:09.067Z,1011.99
2022-10-13T03:18:44.568Z,1012.01
2022-10-13T03:19:19.849Z,1012.02
2022-10-13T03:19:54.947Z,1012.03
2022-10-13T03:20:30.249Z,1012.03
2022-10-13T03:21:05.344Z,1012.06
2022-10-13T03:21:40.742Z,1012.05
2022-10-13T03:22:15.826Z,1012.02
2022-10-13T03:22:50.929Z,1012.01
2022-10-13T03:23:25.916Z,1012.01
2022-10-13T03:24:01.223Z,1012.02
2022-10-13T03:24:36.514Z,1012.05
2022-10-13T03:25:12.018Z,1012.06
2022-10-13T03:25:47.114Z,1012.03
2022-10-13T03:26:22.117Z,1012.02
2022-10-13T03:26:57.238Z,1011.98
2022-10-13T03:27:32.425Z,1011.98
2022-10-13T03:28:07.518Z,1011.95
2022-10-13T03:28:42.538Z,1011.90
2022-10-13T03:29:17.741Z,1011.91
2022-10-13T03:29:53.032Z,1011.95
2022-10-13T03:30:28.325Z,1011.92
2022-10-13T03:31:03.538Z,1011.99
2022-10-13T03:31:38.835Z,1011.96
2022-10-13T03:32:13.845Z,1012.00
2022-10-13T03:32:48.933Z,1011.98
2022-10-13T03:33:24.163Z,1012.00
2022-10-13T03:33:59.550Z,1011.96
2022-10-13T03:34:34.769Z,1011.92
2022-10-13T03:35:10.074Z,1011.92
2022-10-13T03:35:45.183Z,1011.92
2022-10-13T03:36:20.502Z,1011.90
2022-10-13T03:36:55.644Z,1011.91
2022-10-13T03:37:30.777Z,1011.88
2022-10-13T03:38:06.082Z,1011.92
2022-10-13T03:38:41.321Z,1011.91
2022-10-13T03:39:16.521Z,1011.88
2022-10-13T03:39:51.740Z,1011.89
2022-10-13T03:40:26.861Z,1011.81
2022-10-13T03:41:01.956Z,1011.87
2022-10-13T03:41:37.162Z,1011.85
2022-10-13T03:42:12.298Z,1011.89
2022-10-13T03:42:47.407Z,1011.83
2022-10-13T03:43:22.412Z,1011.88
2022-10-13T03:43:57.818Z,1011.89
2022-10-13T03:44:33.217Z,1011.89
2022-10-13T03:45:08.494Z,1011.91
2022-10-13T03:45:43.500Z,1011.91
2022-10-13T03:46:18.780Z,1011.89
2022-10-13T03:46:53.898Z,1011.84
2022-10-13T03:47:29.290Z,1011.81
2022-10-13T03:48:04.694Z,1011.85
2022-10-13T03:48:40.399Z,1011.83
2022-10-13T03:49:16.011Z,1011.84
2022-10-13T03:49:51.011Z,1011.84
2022-10-13T03:50:26.138Z,1011.81
2022-10-13T03:51:01.364Z,1011.79
2022-10-13T03:51:36.602Z,1011.79
2022-10-13T03:52:11.815Z,1011.82
2022-10-13T03:52:47.205Z,1011.78
2022-10-13T03:53:22.338Z,1011.81
2022-10-13T03:53:57.642Z,1011.80
2022-10-13T03:54:33.257Z,1011.83
2022-10-13T03:55:08.668Z,1011.79
2022-10-13T03:55:43.961Z,1011.81
2022-10-13T03:56:19.200Z,1011.82
2022-10-13T03:56:54.513Z,1011.82
2022-10-13T03:57:29.845Z,1011.83
2022-10-13T03:58:04.862Z,1011.85
2022-10-13T03:58:40.183Z,1011.84
2022-10-13T03:59:15.415Z,1011.82
2022-10-13T03:59:50.940Z,1011.82
2022-10-13T04:00:26.434Z,1011.82
2022-10-13T04:01:01.677Z,1011.83
2022-10-13T04:01:37.030Z,1011.82
2022-10-13T04:02:12.001Z,1011.80
2022-10-13T04:02:47.009Z,1011.82
2022-10-13T04:03:22.213Z,1011.79
2022-10-13T04:03:57.534Z,1011.76
2022-10-13T04:04:32.847Z,1011.75
2022-10-13T04:05:08.254Z,1011.70
2022-10-13T04:05:43.356Z,1011.71
2022-10-13T04:06:18.689Z,1011.70
2022-10-13T04:06:54.001Z,1011.74
2022-10-13T04:07:29.408Z,1011.70
2022-10-13T04:08:05.074Z,1011.67
2022-10-13T04:08:40.458Z,1011.69
2022-10-13T04:09:15.878Z,1011.68
2022-10-13T04:09:51.092Z,1011.72
2022-10-13T04:10:26.103Z,1011.71
2022-10-13T04:11:01.518Z,1011.75
2022-10-13T04:11:36.824Z,1011.77
2022-10-13T04:12:11.954Z,1011.67
2022-10-13T04:12:47.029Z,1011.66
2022-10-13T04:13:22.459Z,1011.65
2022-10-13T04:13:57.950Z,1011.65
2022-10-13T04:14:39.892Z,1011.65
2022-10-13T04:15:15.206Z,1011.62
2022-10-13T04:15:50.417Z,1011.64
2022-10-13T04:16:25.641Z,1011.70
2022-10-13T04:17:00.833Z,1011.64
2022-10-13T04:17:36.159Z,1011.63
2022-10-13T04:18:11.250Z,1011.61
2022-10-13T04:18:46.576Z,1011.66
2022-10-13T04:19:21.679Z,1011.66
2022-10-13T04:19:56.801Z,1011.61
2022-10-13T04:20:32.194Z,1011.61
2022-10-13T04:21:07.431Z,1011.64
2022-10-13T04:21:42.438Z,1011.61
2022-10-13T04:22:18.101Z,1011.58
2022-10-13T04:22:53.054Z,1011.61
2022-10-13T04:23:28.475Z,1011.58
2022-10-13T04:24:03.616Z,1011.58
2022-10-13T04:24:38.887Z,1011.57
2022-10-13T04:25:14.296Z,1011.58
2022-10-13T04:25:49.826Z,1011.56
2022-10-13T04:26:25.335Z,1011.58
2022-10-13T04:27:00.485Z,1011.55
2022-10-13T04:27:35.666Z,1011.57
2022-10-13T04:28:10.975Z,1011.56
2022-10-13T04:28:46.262Z,1011.58
2022-10-13T04:29:21.699Z,1011.53
2022-10-13T04:29:56.995Z,1011.57
2022-10-13T04:30:32.216Z,1011.55
2022-10-13T04:31:07.494Z,1011.59
2022-10-13T04:31:43.001Z,1011.57
2022-10-13T04:32:18.683Z,1011.55
2022-10-13T04:32:53.720Z,1011.54
2022-10-13T04:33:28.948Z,1011.51
2022-10-13T04:34:04.233Z,1011.50
2022-10-13T04:34:39.643Z,1011.48
2022-10-13T04:35:14.868Z,1011.49
2022-10-13T04:35:49.914Z,1011.48
2022-10-13T04:36:25.346Z,1011.46
2022-10-13T04:37:00.347Z,1011.45
2022-10-13T04:37:35.737Z,1011.43
2022-10-13T04:38:11.048Z,1011.42
2022-10-13T04:38:46.361Z,1011.43
2022-10-13T04:39:21.666Z,1011.44
2022-10-13T04:39:56.589Z,1011.46
2022-10-13T04:40:31.903Z,1011.45
2022-10-13T04:41:07.452Z,1011.46
2022-10-13T04:41:42.759Z,1011.42
2022-10-13T04:42:18.551Z,1011.42
2022-10-13T04:42:53.572Z,1011.46
2022-10-13T04:43:28.887Z,1011.47
2022-10-13T04:44:04.106Z,1011.45
2022-10-13T04:44:39.297Z,1011.44
2022-10-13T04:45:14.617Z,1011.41
2022-10-13T04:45:49.644Z,1011.38
2022-10-13T04:46:24.993Z,1011.41
2022-10-13T04:47:00.201Z,1011.45
2022-10-13T04:47:37.114Z,1011.46
2022-10-13T04:48:11.117Z,1011.39
2022-10-13T04:48:46.105Z,1011.43
2022-10-13T04:49:21.761Z,1011.42
2022-10-13T04:49:56.869Z,1011.44
2022-10-13T04:50:32.176Z,1011.42
2022-10-13T04:51:07.638Z,1011.38
2022-10-13T04:51:42.837Z,1011.36
2022-10-13T04:52:18.345Z,1011.41
2022-10-13T04:52:53.198Z,1011.40
2022-10-13T04:53:28.461Z,1011.40
2022-10-13T04:54:03.763Z,1011.41
2022-10-13T04:54:39.589Z,1011.42
2022-10-13T04:55:14.736Z,1011.44
2022-10-13T04:55:50.434Z,1011.42
2022-10-13T04:56:25.365Z,1011.38
2022-10-13T04:57:00.804Z,1011.40
2022-10-13T04:57:36.287Z,1011.40
2022-10-13T04:58:11.516Z,1011.39
2022-10-13T04:58:46.772Z,1011.41
2022-10-13T04:59:22.008Z,1011.40
2022-10-13T04:59:57.303Z,1011.42
2022-10-13T05:00:32.758Z,1011.36
2022-10-13T05:01:08.006Z,1011.42
2022-10-13T05:01:43.181Z,1011.39
2022-10-13T05:02:18.658Z,1011.38
2022-10-13T05:02:53.583Z,1011.38
2022-10-13T05:03:29.010Z,1011.35
2022-10-13T05:04:04.439Z,1011.34
2022-10-13T05:04:39.446Z,1011.33
2022-10-13T05:05:14.667Z,1011.38
2022-10-13T05:05:50.116Z,1011.34
2022-10-13T05:06:25.542Z,1011.32
2022-10-13T05:07:17.016Z,1011.36
2022-10-13T05:07:36.055Z,1011.29
2022-10-13T05:08:11.364Z,1011.33
2022-10-13T05:08:46.785Z,1011.26
2022-10-13T05:09:21.989Z,1011.28
2022-10-13T05:09:57.283Z,1011.27
2022-10-13T05:10:34.743Z,1011.26
2022-10-13T05:11:07.583Z,1011.25
2022-10-13T05:11:42.712Z,1011.25
2022-10-13T05:12:18.324Z,1011.24
2022-10-13T05:12:53.368Z,1011.30
2022-10-13T05:13:28.775Z,1011.29
2022-10-13T05:14:04.162Z,1011.26
2022-10-13T05:14:39.407Z,1011.28
2022-10-13T05:15:14.744Z,1011.25
2022-10-13T05:15:49.870Z,1011.26
2022-10-13T05:16:25.183Z,1011.31
2022-10-13T05:17:00.895Z,1011.31
2022-10-13T05:17:35.900Z,1011.30
2022-10-13T05:18:11.108Z,1011.32
2022-10-13T05:18:46.229Z,1011.27
2022-10-13T05:19:21.863Z,1011.28
2022-10-13T05:19:57.377Z,1011.26
2022-10-13T05:20:32.403Z,1011.24
2022-10-13T05:21:07.623Z,1011.25
2022-10-13T05:21:42.874Z,1011.27
2022-10-13T05:22:18.495Z,1011.24
2022-10-13T05:22:53.921Z,1011.21
2022-10-13T05:23:29.147Z,1011.23
2022-10-13T05:24:04.676Z,1011.26
2022-10-13T05:24:39.975Z,1011.22
2022-10-13T05:25:15.533Z,1011.26
2022-10-13T05:25:50.956Z,1011.21
2022-10-13T05:26:26.195Z,1011.19
2022-10-13T05:27:01.677Z,1011.18
2022-10-13T05:27:36.791Z,1011.20
2022-10-13T05:28:11.748Z,1011.21
2022-10-13T05:28:47.372Z,1011.24
2022-10-13T05:29:22.724Z,1011.23
2022-10-13T05:29:58.077Z,1011.26
2022-10-13T05:30:33.574Z,1011.24
2022-10-13T05:31:08.908Z,1011.22
2022-10-13T05:31:43.914Z,1011.20
2022-10-13T05:32:19.562Z,1011.17
2022-10-13T05:32:54.729Z,1011.17
2022-10-13T05:33:30.033Z,1011.13
2022-10-13T05:34:05.226Z,1011.13
2022-10-13T05:34:40.759Z,1011.12
2022-10-13T05:35:16.557Z,1011.14
2022-10-13T05:35:51.884Z,1011.12
2022-10-13T05:36:27.041Z,1011.17
2022-10-13T05:37:02.832Z,1011.17
2022-10-13T05:37:38.050Z,1011.22
2022-10-13T05:38:13.446Z,1011.19
2022-10-13T05:38:48.689Z,1011.16
2022-10-13T05:39:23.787Z,1011.21
2022-10-13T05:39:59.129Z,1011.24
2022-10-13T05:40:34.759Z,1011.23
2022-10-13T05:41:10.001Z,1011.20
2022-10-13T05:41:45.029Z,1011.15
2022-10-13T05:42:20.554Z,1011.14
2022-10-13T05:42:55.451Z,1011.17
2022-10-13T05:43:30.476Z,1011.18
2022-10-13T05:44:05.701Z,1011.13
2022-10-13T05:44:40.864Z,1011.15
2022-10-13T05:45:16.106Z,1011.12
2022-10-13T05:45:51.772Z,1011.17
2022-10-13T05:46:26.918Z,1011.15
2022-10-13T05:47:07.239Z,1011.15
2022-10-13T05:47:36.954Z,1011.16
2022-10-13T05:48:12.170Z,1011.15
2022-10-13T05:48:47.659Z,1011.18
2022-10-13T05:49:22.670Z,1011.19
2022-10-13T05:49:58.128Z,1011.16
2022-10-13T05:50:33.418Z,1011.12
2022-10-13T05:51:08.664Z,1011.11
2022-10-13T05:51:43.940Z,1011.13
2022-10-13T05:52:19.594Z,1011.14
2022-10-13T05:52:54.774Z,1011.12
2022-10-13T05:53:30.097Z,1011.15
2022-10-13T05:54:05.602Z,1011.13
2022-10-13T05:54:40.799Z,1011.14
2022-10-13T05:55:16.012Z,1011.17
2022-10-13T05:55:51.522Z,1011.13
2022-10-13T05:56:26.752Z,1011.15
2022-10-13T05:57:02.290Z,1011.16
2022-10-13T05:57:37.543Z,1011.15
2022-10-13T05:58:13.252Z,1011.13
2022-10-13T05:58:48.683Z,1011.09
2022-10-13T05:59:27.167Z,1011.13
2022-10-13T05:59:59.120Z,1011.10
2022-10-13T06:00:34.360Z,1011.06
2022-10-13T06:01:09.591Z,1011.07
2022-10-13T06:01:45.086Z,1011.06
2022-10-13T06:02:20.502Z,1011.07
2022-10-13T06:02:55.471Z,1011.06
2022-10-13T06:03:30.790Z,1011.03
2022-10-13T06:04:06.113Z,1011.01
2022-10-13T06:04:41.437Z,1010.98
2022-10-13T06:05:16.762Z,1011.01
2022-10-13T06:05:52.213Z,1011.01
2022-10-13T06:06:31.242Z,1011.06
2022-10-13T06:07:02.603Z,1011.04
2022-10-13T06:07:37.830Z,1011.03
2022-10-13T06:08:13.148Z,1010.98
2022-10-13T06:08:48.470Z,1011.01
2022-10-13T06:09:24.286Z,1011.00
2022-10-13T06:09:59.503Z,1011.01
2022-10-13T06:10:34.898Z,1010.99
2022-10-13T06:11:10.426Z,1010.96
2022-10-13T06:11:45.759Z,1010.99
2022-10-13T06:12:21.276Z,1010.94
2022-10-13T06:12:56.010Z,1010.95
2022-10-13T06:13:31.214Z,1010.91
2022-10-13T06:14:06.723Z,1010.95
2022-10-13T06:14:42.028Z,1010.96
2022-10-13T06:15:17.136Z,1011.03
2022-10-13T06:15:52.360Z,1011.04
2022-10-13T06:16:27.888Z,1011.03
2022-10-13T06:17:02.926Z,1011.03
2022-10-13T06:17:38.031Z,1010.98
2022-10-13T06:18:13.230Z,1010.95
2022-10-13T06:18:48.439Z,1010.92
2022-10-13T06:19:24.080Z,1010.90
2022-10-13T06:19:59.592Z,1010.89
2022-10-13T06:20:34.678Z,1010.90
2022-10-13T06:21:09.971Z,1010.85
2022-10-13T06:21:45.487Z,1010.85
2022-10-13T06:22:21.018Z,1010.85
2022-10-13T06:22:56.118Z,1010.79
2022-10-13T06:23:31.736Z,1010.81
2022-10-13T06:24:06.755Z,1010.79
2022-10-13T06:24:42.099Z,1010.77
2022-10-13T06:25:17.441Z,1010.83
2022-10-13T06:25:52.650Z,1010.84
2022-10-13T06:26:27.773Z,1010.92
2022-10-13T06:27:02.781Z,1010.96
2022-10-13T06:27:38.003Z,1010.97
2022-10-13T06:28:13.284Z,1011.01
2022-10-13T06:28:51.026Z,1010.96
2022-10-13T06:29:23.670Z,1010.93
2022-10-13T06:29:59.008Z,1010.93
2022-10-13T06:30:34.324Z,1010.81
2022-10-13T06:31:09.676Z,1010.84
2022-10-13T06:31:44.988Z,1010.88
2022-10-13T06:32:20.384Z,1010.89
2022-10-13T06:32:55.438Z,1010.93
2022-10-13T06:33:30.651Z,1010.93
2022-10-13T06:34:05.979Z,1010.96
2022-10-13T06:34:41.102Z,1010.92
2022-10-13T06:35:16.729Z,1010.91
2022-10-13T06:35:51.863Z,1010.91
2022-10-13T06:36:27.235Z,1010.88
2022-10-13T06:37:02.626Z,1010.87
2022-10-13T06:37:37.958Z,1010.87
2022-10-13T06:38:13.709Z,1010.87
2022-10-13T06:38:48.924Z,1010.96
2022-10-13T06:39:24.151Z,1010.92
2022-10-13T06:39:59.236Z,1010.92
2022-10-13T06:40:34.462Z,1010.96
2022-10-13T06:41:09.564Z,1010.93
2022-10-13T06:41:44.847Z,1010.92
2022-10-13T06:42:20.321Z,1010.95
2022-10-13T06:42:55.476Z,1010.97
2022-10-13T06:43:38.682Z,1010.94
2022-10-13T06:44:05.994Z,1010.91
2022-10-13T06:44:41.454Z,1010.94
2022-10-13T06:45:16.442Z,1010.94
2022-10-13T06:45:51.659Z,1010.94
2022-10-13T06:46:27.174Z,1010.95
2022-10-13T06:47:02.523Z,1010.93
2022-10-13T06:47:37.954Z,1010.95
2022-10-13T06:48:13.287Z,1010.95
2022-10-13T06:48:48.495Z,1010.95
2022-10-13T06:49:23.840Z,1010.93
2022-10-13T06:49:59.274Z,1010.96
2022-10-13T06:50:34.712Z,1010.92
2022-10-13T06:51:09.633Z,1010.91
2022-10-13T06:51:44.756Z,1010.91
2022-10-13T06:52:20.522Z,1010.89
2022-10-13T06:52:55.569Z,1010.89
2022-10-13T06:53:31.014Z,1010.90
2022-10-13T06:54:06.324Z,1010.89
2022-10-13T06:54:41.527Z,1010.92
2022-10-13T06:55:16.548Z,1010.89
2022-10-13T06:55:52.570Z,1010.90
2022-10-13T06:56:26.784Z,1010.90
2022-10-13T06:57:01.887Z,1010.88
2022-10-13T06:57:37.123Z,1010.91
2022-10-13T06:58:12.340Z,1010.92
2022-10-13T06:58:47.374Z,1010.94
2022-10-13T06:59:22.598Z,1010.93
2022-10-13T06:59:58.114Z,1010.92
2022-10-13T07:00:33.367Z,1010.92
2022-10-13T07:01:08.759Z,1010.87
2022-10-13T07:01:43.964Z,1010.91
2022-10-13T07:02:19.648Z,1010.92
2022-10-13T07:02:55.191Z,1010.95
2022-10-13T07:03:30.314Z,1011.00
2022-10-13T07:04:05.513Z,1010.98
2022-10-13T07:04:40.732Z,1010.98
2022-10-13T07:05:15.948Z,1010.96
2022-10-13T07:05:51.072Z,1010.98
2022-10-13T07:06:26.141Z,1010.97